Time;durP1;ratioP1;P1;durP2;ratioP2;P2;SDS_P1;SDS_P2;PMS_P1;PMS_P2;Temp;Humidity;BMP_temperature;BMP_pressure;BME280_temperature;BME280_humidity;BME280_pressure;Samples;Min_cycle;Max_cycle;Signal;HPM_P1;HPM_P2
2023/05/01 00:07:29;;;;;;;2.95;0.80;;;9.30;99.90;;;;;;25970423;22;20015;-59
2023/05/01 00:17:31;;;;;;;0.68;0.40;;;9.30;99.90;;;;;;25970167;22;20000;-59
2023/05/01 00:27:32;;;;;;;1.65;0.80;;;9.20;99.90;;;;;;25969825;22;20008;-59
2023/05/01 00:37:34;;;;;;;2.35;0.98;;;9.20;99.90;;;;;;25943101;22;20008;-59
2023/05/01 00:47:36;;;;;;;2.92;1.38;;;9.00;99.90;;;;;;25941892;22;20521;-48
2023/05/01 00:57:38;;;;;;;1.40;0.98;;;8.90;99.90;;;;;;25941388;22;20011;-59
2023/05/01 01:07:50;;;;;;;3.38;1.50;;;9.00;99.90;;;;;;25968426;22;20008;-49
2023/05/01 01:17:58;;;;;;;1.80;1.50;;;9.00;99.90;;;;;;25982855;22;20350;-48
2023/05/01 01:28:10;;;;;;;2.13;1.80;;;9.00;99.90;;;;;;26009445;22;20015;-53
2023/05/01 01:38:39;;;;;;;2.40;2.00;;;8.80;99.90;;;;;;25966413;22;20034;-51
2023/05/01 01:48:45;;;;;;;2.63;1.55;;;8.70;99.90;;;;;;25969454;22;20004;-59
2023/05/01 01:58:52;;;;;;;2.28;1.45;;;8.80;99.90;;;;;;25981312;22;20008;-59
2023/05/01 02:08:56;;;;;;;1.67;1.40;;;9.00;99.90;;;;;;25981227;22;20000;-59
2023/05/01 02:18:59;;;;;;;1.63;1.40;;;9.00;99.90;;;;;;25938406;22;20011;-51
2023/05/01 02:29:00;;;;;;;2.05;1.48;;;8.90;99.90;;;;;;25965250;22;20431;-48
2023/05/01 02:39:02;;;;;;;2.25;1.70;;;8.70;99.90;;;;;;25965492;22;20004;-50
2023/05/01 02:49:05;;;;;;;1.67;1.40;;;8.70;99.90;;;;;;25967101;22;20007;-49
2023/05/01 02:59:07;;;;;;;2.08;1.70;;;8.50;99.90;;;;;;25946243;22;20008;-48
2023/05/01 03:09:08;;;;;;;1.95;1.60;;;8.30;99.90;;;;;;25945665;22;20069;-58
2023/05/01 03:19:11;;;;;;;3.47;1.80;;;8.10;99.90;;;;;;25945234;22;20004;-48
2023/05/01 03:29:13;;;;;;;3.30;2.13;;;8.00;99.90;;;;;;25971937;22;20004;-48
2023/05/01 03:39:15;;;;;;;3.00;2.17;;;8.00;99.90;;;;;;25944825;22;20308;-52
2023/05/01 03:49:36;;;;;;;2.85;2.03;;;7.90;99.90;;;;;;25972239;22;20015;-59
2023/05/01 03:59:38;;;;;;;4.03;2.88;;;7.80;99.90;;;;;;25943508;22;20049;-50
2023/05/01 04:09:40;;;;;;;3.42;2.90;;;7.60;99.90;;;;;;25918150;22;20007;-50
2023/05/01 04:19:42;;;;;;;3.63;3.05;;;7.40;99.90;;;;;;25942846;22;20000;-58
2023/05/01 04:29:43;;;;;;;3.90;3.20;;;7.30;99.90;;;;;;25942836;22;20007;-58
2023/05/01 04:39:45;;;;;;;3.65;2.78;;;7.30;99.90;;;;;;25943713;22;20076;-51
2023/05/01 04:49:47;;;;;;;3.20;2.67;;;7.40;99.90;;;;;;25984296;22;20107;-59
2023/05/01 04:59:49;;;;;;;4.93;2.45;;;7.50;99.90;;;;;;25941383;22;20069;-49
2023/05/01 05:09:51;;;;;;;2.33;2.13;;;7.80;99.90;;;;;;25940755;22;20057;-51
2023/05/01 05:19:52;;;;;;;4.13;2.92;;;8.00;99.90;;;;;;25967440;22;20018;-59
2023/05/01 05:29:54;;;;;;;3.28;2.75;;;8.30;99.90;;;;;;25940326;22;19996;-49
2023/05/01 05:39:56;;;;;;;3.05;2.60;;;8.50;99.90;;;;;;25966964;22;20042;-59
2023/05/01 05:49:58;;;;;;;3.17;2.55;;;8.90;99.90;;;;;;25981648;22;20422;-50
2023/05/01 06:00:01;;;;;;;2.80;2.30;;;9.40;99.90;;;;;;25939305;22;20057;-60
2023/05/01 06:10:04;;;;;;;2.92;2.50;;;9.60;99.90;;;;;;25965009;22;20003;-48
2023/05/01 06:20:06;;;;;;;3.28;2.50;;;9.90;99.90;;;;;;25938637;22;20010;-59
2023/05/01 06:30:09;;;;;;;5.00;2.80;;;10.40;99.90;;;;;;25938174;22;20058;-59
2023/05/01 06:40:14;;;;;;;2.50;2.03;;;10.70;99.90;;;;;;25951159;22;20004;-48
2023/05/01 06:50:16;;;;;;;2.20;1.90;;;10.80;99.90;;;;;;25937689;22;20004;-59
2023/05/01 07:00:19;;;;;;;1.85;1.60;;;11.30;99.90;;;;;;25937701;22;20053;-52
2023/05/01 07:10:21;;;;;;;3.15;1.95;;;12.00;99.90;;;;;;25964655;22;20374;-60
2023/05/01 07:20:22;;;;;;;2.53;1.77;;;12.70;99.90;;;;;;25964455;22;20004;-60
2023/05/01 07:30:24;;;;;;;2.65;2.45;;;13.40;99.90;;;;;;25964295;22;20007;-60
2023/05/01 07:40:26;;;;;;;2.90;2.42;;;14.00;99.90;;;;;;25968349;22;20061;-50
2023/05/01 07:50:28;;;;;;;2.88;2.40;;;14.40;99.90;;;;;;25971806;22;20023;-60
2023/05/01 08:00:30;;;;;;;2.55;2.25;;;14.30;99.90;;;;;;25970996;22;20034;-48
2023/05/01 08:10:31;;;;;;;2.70;2.20;;;14.30;99.90;;;;;;25971165;22;20006;-51
2023/05/01 08:20:34;;;;;;;2.60;2.20;;;14.70;99.90;;;;;;25970074;22;20058;-61
2023/05/01 08:30:36;;;;;;;3.10;2.40;;;15.20;99.90;;;;;;25969731;22;20335;-52
2023/05/01 08:40:39;;;;;;;2.58;2.28;;;14.50;99.90;;;;;;25969685;22;20461;-52
2023/05/01 08:50:45;;;;;;;3.17;2.35;;;14.20;99.90;;;;;;25968650;22;20008;-61
2023/05/01 09:00:47;;;;;;;2.10;1.90;;;14.30;99.90;;;;;;26010672;22;20004;-61
2023/05/01 09:10:51;;;;;;;2.92;2.63;;;15.00;99.90;;;;;;25939943;22;20065;-50
2023/05/01 09:20:54;;;;;;;2.75;2.33;;;15.70;99.90;;;;;;25940493;22;20004;-48
2023/05/01 09:30:56;;;;;;;3.58;2.60;;;15.60;99.90;;;;;;25967482;22;20000;-47
2023/05/01 09:41:05;;;;;;;3.83;2.75;;;15.80;99.90;;;;;;25966792;22;20016;-51
2023/05/01 09:51:20;;;;;;;;;;;16.20;99.90;;;;;;26009555;22;20011;-61
2023/05/01 10:01:39;;;;;;;3.90;3.30;;;16.80;99.90;;;;;;26008336;22;19911;-60
2023/05/01 10:11:51;;;;;;;5.43;4.13;;;16.00;99.90;;;;;;25938319;22;20038;-60
2023/05/01 10:21:53;;;;;;;4.95;4.28;;;14.70;99.90;;;;;;25938042;22;20003;-60
2023/05/01 10:31:55;;;;;;;4.70;4.20;;;13.90;99.90;;;;;;25965205;22;20003;-60
2023/05/01 10:42:05;;;;;;;5.70;4.70;;;13.60;99.90;;;;;;25936748;22;20020;-60
2023/05/01 10:52:07;;;;;;;6.43;4.88;;;13.50;99.90;;;;;;25965003;22;20007;-51
2023/05/01 11:02:21;;;;;;;4.70;4.30;;;13.20;99.90;;;;;;25964915;22;20011;-50
2023/05/01 11:12:45;;;;;;;5.90;5.22;;;13.00;99.90;;;;;;25940786;22;20003;-49
2023/05/01 11:22:53;;;;;;;6.43;4.95;;;12.70;99.90;;;;;;26014874;22;20000;-60
2023/05/01 11:32:54;;;;;;;5.18;4.25;;;12.70;99.90;;;;;;26014808;22;19999;-48
2023/05/01 11:43:06;;;;;;;4.97;4.13;;;13.30;99.90;;;;;;25971422;22;20014;-51
2023/05/01 11:53:16;;;;;;;7.07;4.55;;;13.50;99.90;;;;;;26013818;22;20018;-49
2023/05/01 12:03:17;;;;;;;4.03;3.63;;;13.90;99.90;;;;;;26012232;22;20375;-50
2023/05/01 12:13:19;;;;;;;5.30;4.45;;;14.20;99.90;;;;;;25970341;22;20016;-51
2023/05/01 12:23:36;;;;;;;5.30;4.80;;;14.50;99.90;;;;;;25970002;22;20004;-50
2023/05/01 12:33:37;;;;;;;5.57;4.50;;;14.60;99.90;;;;;;26012117;22;20015;-60
2023/05/01 12:43:40;;;;;;;4.43;3.80;;;13.90;99.90;;;;;;25970091;22;20516;-60
2023/05/01 12:53:43;;;;;;;3.72;2.90;;;14.10;99.90;;;;;;25968754;22;20088;-59
2023/05/01 13:03:45;;;;;;;3.67;2.20;;;14.20;99.90;;;;;;25967715;22;20042;-60
2023/05/01 13:13:48;;;;;;;3.05;1.77;;;14.50;99.90;;;;;;25940840;22;20373;-60
2023/05/01 13:23:58;;;;;;;1.63;1.38;;;14.50;99.90;;;;;;25967510;22;20503;-49
2023/05/01 13:34:02;;;;;;;;;;;13.70;99.90;;;;;;26009644;22;20014;-56
2023/05/01 13:44:05;;;;;;;2.95;2.20;;;13.60;99.60;;;;;;25966006;22;20315;-53
2023/05/01 13:54:08;;;;;;;2.25;1.83;;;13.00;99.90;;;;;;25966663;22;20003;-51
2023/05/01 14:04:14;;;;;;;3.15;2.05;;;13.00;99.90;;;;;;25964881;22;20308;-50
2023/05/01 14:14:17;;;;;;;3.35;2.08;;;13.10;99.90;;;;;;26007842;22;20086;-47
2023/05/01 14:24:21;;;;;;;2.67;1.30;;;12.80;99.90;;;;;;25965472;22;20028;-59
2023/05/01 14:34:23;;;;;;;2.03;1.45;;;12.30;98.80;;;;;;25938222;22;20117;-49
2023/05/01 14:44:29;;;;;;;5.30;1.77;;;11.40;99.90;;;;;;25966829;22;20061;-48
2023/05/01 14:54:43;;;;;;;2.58;1.63;;;10.10;99.90;;;;;;26016222;22;20085;-50
2023/05/01 15:04:45;;;;;;;1.88;1.40;;;10.10;99.90;;;;;;26015484;22;19999;-49
2023/05/01 15:14:46;;;;;;;1.60;1.25;;;10.50;99.90;;;;;;25945435;22;20069;-49
2023/05/01 15:24:51;;;;;;;1.40;1.00;;;10.40;99.90;;;;;;25945436;22;20015;-51
2023/05/01 15:34:55;;;;;;;2.70;1.90;;;10.30;99.90;;;;;;25971810;22;20026;-49
2023/05/01 15:44:57;;;;;;;3.08;2.25;;;10.10;99.90;;;;;;25971097;22;20385;-61
2023/05/01 15:54:59;;;;;;;3.95;2.35;;;10.00;99.90;;;;;;25971294;22;20011;-60
2023/05/01 16:05:00;;;;;;;2.55;1.90;;;10.00;99.90;;;;;;25971028;22;20504;-51
2023/05/01 16:15:04;;;;;;;2.17;1.67;;;9.90;99.90;;;;;;25970637;22;20023;-60
2023/05/01 16:25:10;;;;;;;1.65;1.33;;;9.70;99.90;;;;;;25970143;22;20008;-48
2023/05/01 16:35:22;;;;;;;2.05;1.40;;;9.70;99.90;;;;;;25942121;22;20027;-51
2023/05/01 16:45:23;;;;;;;2.90;1.80;;;9.50;99.90;;;;;;25958120;22;20012;-49
2023/05/01 16:55:26;;;;;;;3.15;2.30;;;9.20;99.90;;;;;;25941365;22;20007;-50
2023/05/01 17:05:27;;;;;;;2.92;1.90;;;8.70;99.90;;;;;;25968267;22;20454;-51
2023/05/01 17:15:29;;;;;;;3.40;2.15;;;8.40;99.90;;;;;;25968089;22;20010;-48
2023/05/01 17:25:31;;;;;;;3.15;2.28;;;7.90;99.90;;;;;;25967980;22;20004;-58
2023/05/01 17:35:33;;;;;;;4.90;2.92;;;7.40;99.90;;;;;;25967051;22;20008;-51
2023/05/01 17:45:35;;;;;;;6.10;2.92;;;7.30;99.90;;;;;;25965505;22;20065;-51
2023/05/01 17:55:37;;;;;;;3.85;3.00;;;7.20;99.90;;;;;;25966725;22;20004;-59
2023/05/01 18:05:39;;;;;;;5.30;2.78;;;7.10;99.90;;;;;;25966212;22;20041;-49
2023/05/01 18:15:41;;;;;;;4.75;3.20;;;7.00;99.90;;;;;;25938854;22;20008;-60
2023/05/01 18:25:42;;;;;;;4.55;2.95;;;6.90;99.90;;;;;;25965372;22;19999;-48
2023/05/01 18:35:44;;;;;;;5.45;3.55;;;6.80;99.90;;;;;;25965517;22;20073;-60
2023/05/01 18:45:46;;;;;;;3.83;2.83;;;6.60;99.90;;;;;;25963909;22;20015;-51
2023/05/01 18:55:48;;;;;;;5.20;3.80;;;6.60;99.90;;;;;;25965211;22;20038;-60
2023/05/01 19:05:49;;;;;;;6.05;4.13;;;6.50;99.90;;;;;;25964552;22;20000;-45
2023/05/01 19:15:52;;;;;;;4.45;3.53;;;6.40;99.90;;;;;;25963905;22;20368;-59
2023/05/01 19:25:53;;;;;;;4.50;3.33;;;6.30;99.90;;;;;;25964455;22;20004;-60
2023/05/01 19:35:55;;;;;;;4.28;3.08;;;6.30;99.90;;;;;;25968532;22;20487;-44
2023/05/01 19:45:57;;;;;;;3.45;2.50;;;6.30;99.90;;;;;;25971570;22;20026;-46
2023/05/01 19:55:59;;;;;;;5.63;1.98;;;6.30;99.90;;;;;;25944062;22;20081;-60
2023/05/01 20:06:02;;;;;;;2.78;1.92;;;6.30;99.90;;;;;;25970935;22;20148;-61
2023/05/01 20:16:04;;;;;;;6.20;2.90;;;6.30;99.90;;;;;;25970406;22;20057;-50
2023/05/01 20:26:07;;;;;;;4.18;3.00;;;6.10;99.90;;;;;;25969950;22;20004;-47
2023/05/01 20:36:09;;;;;;;4.65;2.97;;;6.10;99.90;;;;;;25969731;22;20427;-49
2023/05/01 20:46:11;;;;;;;5.38;3.17;;;6.00;99.90;;;;;;25969064;22;20081;-48
2023/05/01 20:56:13;;;;;;;3.25;2.80;;;6.00;99.90;;;;;;25969096;22;20030;-48
2023/05/01 21:06:15;;;;;;;4.70;3.28;;;6.10;99.90;;;;;;25968288;22;20061;-49
2023/05/01 21:16:18;;;;;;;3.55;2.70;;;6.00;99.90;;;;;;25968259;22;20000;-47
2023/05/01 21:26:21;;;;;;;4.10;3.35;;;5.90;99.90;;;;;;25967611;22;20004;-60
2023/05/01 21:36:23;;;;;;;6.18;3.80;;;5.90;99.90;;;;;;25967510;22;20000;-47
2023/05/01 21:46:24;;;;;;;5.55;3.40;;;5.80;99.90;;;;;;25966578;22;20007;-46
2023/05/01 21:56:27;;;;;;;3.80;3.05;;;5.80;99.90;;;;;;25966246;22;20435;-47
2023/05/01 22:06:28;;;;;;;4.70;3.45;;;5.80;99.90;;;;;;25966145;22;20069;-47
2023/05/01 22:16:30;;;;;;;3.70;2.58;;;5.80;99.90;;;;;;25965788;22;20439;-48
2023/05/01 22:26:32;;;;;;;3.67;2.67;;;5.70;99.90;;;;;;25965775;22;20015;-58
2023/05/01 22:36:33;;;;;;;3.03;2.22;;;5.70;99.90;;;;;;25965380;22;20004;-48
2023/05/01 22:46:35;;;;;;;3.83;2.60;;;5.70;99.90;;;;;;25964851;22;20011;-47
2023/05/01 22:56:37;;;;;;;2.85;2.33;;;5.70;99.90;;;;;;25965247;22;20066;-58
2023/05/01 23:06:39;;;;;;;3.92;2.70;;;5.70;99.90;;;;;;25967607;22;20003;-45
2023/05/01 23:16:41;;;;;;;3.63;3.05;;;5.80;99.90;;;;;;25972731;22;20004;-46
2023/05/01 23:26:43;;;;;;;4.65;2.92;;;5.80;99.90;;;;;;25972571;22;20003;-46
2023/05/01 23:36:46;;;;;;;4.57;2.90;;;5.80;99.90;;;;;;25972032;22;20000;-59
2023/05/01 23:46:47;;;;;;;3.50;2.90;;;5.70;99.90;;;;;;25971298;22;20439;-49
2023/05/01 23:56:49;;;;;;;4.68;2.38;;;5.70;99.90;;;;;;25971770;22;20508;-47
